Menu Close Menu
Station Historical Data
Daily Summary for October 23, 2017 Units:  Metric    English   Both
« Previous Day
Next Day »
Daily Weekly Monthly Yearly Custom
  High: Low: Average:
Temperature: 20.7 °C 12.6 °C 18.1 °C
Dew Point: 18.7 °C 10.4 °C 15.3 °C
Humidity: 94% 60% 85%
Wind Speed: 42.6km/h 12.9km/h 21.7km/h
Wind Gust: 42.6km/h - -
Wind- - SSW
Pressure: 1019.9 hPa 1010.4 hPa -
Precipitation: 65.53 mm    
Historical Graphs
 
 
Tabular Data for October 23, 2017
Time Temperature Dew Point Pressure Wind Wind Speed Wind Gust Humidity Rainfall Rate (Hourly) solar Conditions
00:00 19.7 °C 17.5 °C 1019.9 hPa ESE 24.1 km/h 24.1 km/h 87% 0 mm WeatherDisplay:10.37 W/m2 OVC
00:05 19.7 °C 17.4 °C 1019.9 hPa ESE 27.8 km/h 27.8 km/h 87% 0 mm WeatherDisplay:10.37 W/m2 OVC
00:10 19.6 °C 17.4 °C 1019.9 hPa ESE 27.8 km/h 27.8 km/h 87% 0 mm WeatherDisplay:10.37 W/m2 OVC
00:15 19.6 °C 17.4 °C 1019.9 hPa ESE 24.1 km/h 24.1 km/h 87% 0 mm WeatherDisplay:10.37 W/m2 OVC
00:20 19.6 °C 17.5 °C 1019.9 hPa ESE 24.1 km/h 24.1 km/h 88% 0 mm WeatherDisplay:10.37 W/m2 OVC
00:26 19.6 °C 17.5 °C 1019.5 hPa ESE 24.1 km/h 24.1 km/h 88% 0 mm WeatherDisplay:10.37 W/m2 OVC
00:31 19.6 °C 17.5 °C 1019.5 hPa ESE 24.1 km/h 24.1 km/h 88% 0 mm WeatherDisplay:10.37 W/m2 OVC
00:41 19.5 °C 17.4 °C 1019.5 hPa ESE 24.1 km/h 24.1 km/h 88% 0 mm WeatherDisplay:10.37 W/m2 OVC
00:46 19.4 °C 17.6 °C 1019.5 hPa ESE 24.1 km/h 24.1 km/h 89% 0 mm WeatherDisplay:10.37 W/m2 OVC
00:51 19.4 °C 17.6 °C 1019.5 hPa ESE 24.1 km/h 24.1 km/h 89% 0 mm WeatherDisplay:10.37 W/m2 OVC
00:56 19.4 °C 17.6 °C 1019.2 hPa ESE 24.1 km/h 24.1 km/h 89% 0 mm WeatherDisplay:10.37 W/m2 OVC
01:01 19.3 °C 17.5 °C 1019.2 hPa East 24.1 km/h 24.1 km/h 89% 0 mm WeatherDisplay:10.37 W/m2 OVC
01:06 19.3 °C 17.6 °C 1019.2 hPa East 22.2 km/h 22.2 km/h 90% 0 mm WeatherDisplay:10.37 W/m2 OVC
01:11 19.3 °C 17.6 °C 1018.8 hPa East 22.2 km/h 22.2 km/h 90% 0 mm WeatherDisplay:10.37 W/m2 OVC
01:16 19.2 °C 17.6 °C 1018.8 hPa East 22.2 km/h 22.2 km/h 90% 0 mm WeatherDisplay:10.37 W/m2 OVC
01:21 19.2 °C 17.6 °C 1018.5 hPa East 40.7 km/h 40.7 km/h 90% 0 mm WeatherDisplay:10.37 W/m2 OVC
01:26 19.2 °C 17.7 °C 1018.5 hPa East 40.7 km/h 40.7 km/h 91% 0 mm WeatherDisplay:10.37 W/m2 OVC
01:31 19.2 °C 17.7 °C 1018.8 hPa East 40.7 km/h 40.7 km/h 91% 0 mm WeatherDisplay:10.37 W/m2 OVC
01:36 19.2 °C 17.7 °C 1018.5 hPa East 40.7 km/h 40.7 km/h 91% 0 mm WeatherDisplay:10.37 W/m2 OVC
01:41 19.2 °C 17.7 °C 1018.8 hPa ESE 40.7 km/h 40.7 km/h 91% 0 mm WeatherDisplay:10.37 W/m2 -DZ
01:46 19.2 °C 17.7 °C 1018.5 hPa ESE 22.2 km/h 22.2 km/h 91% 0 mm WeatherDisplay:10.37 W/m2 -DZ
01:51 19.2 °C 17.7 °C 1018.5 hPa ESE 22.2 km/h 22.2 km/h 91% 0 mm WeatherDisplay:10.37 W/m2 -DZ
01:56 19.2 °C 17.7 °C 1018.5 hPa ESE 22.2 km/h 22.2 km/h 91% 0 mm WeatherDisplay:10.37 W/m2 -DZ
02:02 19.2 °C 17.8 °C 1018.5 hPa ESE 22.2 km/h 22.2 km/h 92% 0 mm WeatherDisplay:10.37 W/m2 -RA
02:07 19.2 °C 17.8 °C 1018.2 hPa ESE 20.4 km/h 20.4 km/h 92% 0 mm WeatherDisplay:10.37 W/m2 -RA
02:12 19.2 °C 17.8 °C 1017.8 hPa ESE 20.4 km/h 20.4 km/h 92% 0 mm WeatherDisplay:10.37 W/m2 -RA
02:17 19.2 °C 17.8 °C 1017.8 hPa ESE 20.4 km/h 20.4 km/h 92% 0 mm WeatherDisplay:10.37 W/m2 -RA
02:22 19.2 °C 17.8 °C 1017.8 hPa ESE 20.4 km/h 20.4 km/h 92% 0.25 mm WeatherDisplay:10.37 W/m2 -RA
02:27 19.2 °C 17.8 °C 1017.5 hPa ESE 20.4 km/h 20.4 km/h 92% 0.25 mm WeatherDisplay:10.37 W/m2 -RA
02:32 19.2 °C 18 °C 1017.5 hPa East 38.9 km/h 38.9 km/h 93% 0.25 mm WeatherDisplay:10.37 W/m2 -RA
02:37 19.2 °C 18 °C 1017.5 hPa East 38.9 km/h 38.9 km/h 93% 0.25 mm WeatherDisplay:10.37 W/m2 -RA
02:42 19.2 °C 18 °C 1017.5 hPa East 38.9 km/h 38.9 km/h 93% 0.25 mm WeatherDisplay:10.37 W/m2 -RA
02:47 19.2 °C 18 °C 1017.2 hPa East 38.9 km/h 38.9 km/h 93% 0.25 mm WeatherDisplay:10.37 W/m2 -RA
02:52 19.2 °C 18 °C 1017.5 hPa ESE 38.9 km/h 38.9 km/h 93% 0.25 mm WeatherDisplay:10.37 W/m2 OVC
02:57 19.2 °C 18 °C 1017.2 hPa ESE 20.4 km/h 20.4 km/h 93% 0.25 mm WeatherDisplay:10.37 W/m2 OVC
03:02 19.2 °C 18.1 °C 1017.5 hPa ESE 20.4 km/h 20.4 km/h 93% 0.25 mm WeatherDisplay:10.37 W/m2 OVC
03:07 19.2 °C 18.1 °C 1017.2 hPa ESE 20.4 km/h 20.4 km/h 93% 0.25 mm WeatherDisplay:10.37 W/m2 OVC
03:12 19.2 °C 18 °C 1016.8 hPa ESE 20.4 km/h 20.4 km/h 93% 0.25 mm WeatherDisplay:10.37 W/m2 OVC
03:17 19.2 °C 18.1 °C 1016.8 hPa ESE 20.4 km/h 20.4 km/h 93% 0.51 mm WeatherDisplay:10.37 W/m2 RA
03:22 19.2 °C 18.1 °C 1016.8 hPa ESE 22.2 km/h 22.2 km/h 93% 0.25 mm WeatherDisplay:10.37 W/m2 -RA
03:27 19.2 °C 18.1 °C 1016.8 hPa ESE 22.2 km/h 22.2 km/h 93% 1.02 mm WeatherDisplay:10.37 W/m2 -RA
03:32 19.2 °C 18.1 °C 1016.5 hPa East 22.2 km/h 22.2 km/h 93% 1.78 mm WeatherDisplay:10.37 W/m2 -RA
03:38 19.2 °C 18.1 °C 1016.5 hPa East 20.4 km/h 20.4 km/h 93% 2.29 mm WeatherDisplay:10.37 W/m2 -RA
03:43 19.2 °C 18.1 °C 1016.5 hPa East 20.4 km/h 20.4 km/h 93% 3.56 mm WeatherDisplay:10.37 W/m2 -RA
03:48 19.2 °C 18.1 °C 1016.1 hPa East 20.4 km/h 20.4 km/h 93% 5.33 mm WeatherDisplay:10.37 W/m2 -RA
03:53 19.2 °C 18.1 °C 1016.1 hPa ESE 20.4 km/h 20.4 km/h 93% 5.59 mm WeatherDisplay:10.37 W/m2 -RA
03:58 19.2 °C 18.1 °C 1015.8 hPa ESE 20.4 km/h 20.4 km/h 93% 5.84 mm WeatherDisplay:10.37 W/m2 -RA
04:03 19.2 °C 18.1 °C 1015.8 hPa ESE 16.7 km/h 16.7 km/h 93% 6.35 mm WeatherDisplay:10.37 W/m2 -RA
04:08 19.2 °C 18 °C 1015.5 hPa ESE 16.7 km/h 16.7 km/h 93% 6.35 mm WeatherDisplay:10.37 W/m2 -RA
04:13 19.2 °C 18.1 °C 1015.5 hPa East 16.7 km/h 16.7 km/h 93% 6.35 mm WeatherDisplay:10.37 W/m2 OVC
04:18 19.2 °C 18.1 °C 1015.1 hPa East 16.7 km/h 16.7 km/h 93% 6.35 mm WeatherDisplay:10.37 W/m2 OVC
04:20 19.2 °C 18.1 °C 1015.1 hPa East 16.7 km/h 16.7 km/h 93% 6.35 mm WeatherDisplay:10.37 W/m2 OVC
04:25 19.2 °C 18.1 °C 1014.8 hPa East 18.5 km/h 18.5 km/h 93% 5.84 mm WeatherDisplay:10.37 W/m2 OVC
04:30 19.2 °C 18.2 °C 1014.8 hPa East 18.5 km/h 18.5 km/h 94% 4.57 mm WeatherDisplay:10.37 W/m2 OVC
04:35 19.3 °C 18.3 °C 1014.8 hPa East 18.5 km/h 18.5 km/h 94% 4.32 mm WeatherDisplay:10.37 W/m2 OVC
04:40 19.3 °C 18.3 °C 1014.4 hPa East 18.5 km/h 18.5 km/h 94% 3.81 mm WeatherDisplay:10.37 W/m2 OVC
04:46 19.3 °C 18.3 °C 1014.4 hPa East 18.5 km/h 18.5 km/h 94% 1.52 mm WeatherDisplay:10.37 W/m2 OVC
04:51 19.4 °C 18.4 °C 1014.4 hPa East 18.5 km/h 18.5 km/h 94% 0.76 mm WeatherDisplay:10.37 W/m2 OVC
04:56 19.4 °C 18.4 °C 1014.4 hPa ESE 18.5 km/h 18.5 km/h 94% 0.51 mm WeatherDisplay:10.37 W/m2 -DZ
05:01 19.4 °C 18.4 °C 1014.4 hPa ESE 18.5 km/h 18.5 km/h 94% 0.76 mm WeatherDisplay:10.37 W/m2 -DZ
05:06 19.4 °C 18.4 °C 1014.4 hPa ESE 22.2 km/h 22.2 km/h 94% 2.29 mm WeatherDisplay:10.37 W/m2 -RA
05:11 19.5 °C 18.5 °C 1014.4 hPa ESE 22.2 km/h 22.2 km/h 94% 2.54 mm WeatherDisplay:10.37 W/m2 -RA
05:16 19.5 °C 18.5 °C 1014.4 hPa ESE 22.2 km/h 22.2 km/h 94% 2.79 mm WeatherDisplay:10.37 W/m2 -RA
05:21 19.5 °C 18.5 °C 1014.4 hPa ESE 24.1 km/h 24.1 km/h 94% 5.84 mm WeatherDisplay:10.37 W/m2 -RA
05:26 19.5 °C 18.5 °C 1014.4 hPa ESE 24.1 km/h 24.1 km/h 94% 6.35 mm WeatherDisplay:10.37 W/m2 -RA
05:31 19.6 °C 18.6 °C 1014.4 hPa ESE 24.1 km/h 24.1 km/h 94% 7.37 mm WeatherDisplay:10.37 W/m2 -RA
05:36 19.6 °C 18.6 °C 1014.1 hPa ESE 22.2 km/h 22.2 km/h 94% 7.37 mm WeatherDisplay:10.37 W/m2 -RA
05:41 19.6 °C 18.6 °C 1014.1 hPa ESE 22.2 km/h 22.2 km/h 94% 7.62 mm WeatherDisplay:10.37 W/m2 -RA
05:46 19.6 °C 18.6 °C 1014.1 hPa ESE 22.2 km/h 22.2 km/h 94% 8.13 mm WeatherDisplay:10.37 W/m2 -RA
05:51 19.6 °C 18.6 °C 1013.8 hPa ESE 22.2 km/h 22.2 km/h 94% 8.64 mm WeatherDisplay:10.37 W/m2 -RA
05:56 19.6 °C 18.6 °C 1013.8 hPa ESE 22.2 km/h 22.2 km/h 94% 9.14 mm WeatherDisplay:10.37 W/m2 -RA
06:01 19.6 °C 18.6 °C 1013.8 hPa ESE 22.2 km/h 22.2 km/h 94% 9.14 mm WeatherDisplay:10.37 W/m2 -RA
06:06 19.6 °C 18.6 °C 1013.4 hPa ESE 22.2 km/h 22.2 km/h 94% 8.13 mm WeatherDisplay:10.37 W/m2 -RA
06:11 19.6 °C 18.6 °C 1013.4 hPa ESE 22.2 km/h 22.2 km/h 94% 8.13 mm WeatherDisplay:10.37 W/m2 -RA
06:16 19.6 °C 18.6 °C 1013.4 hPa ESE 22.2 km/h 22.2 km/h 94% 7.87 mm WeatherDisplay:10.37 W/m2 -RA
06:21 19.6 °C 18.6 °C 1013.1 hPa ESE 22.2 km/h 22.2 km/h 94% 4.83 mm WeatherDisplay:10.37 W/m2 -RA
06:26 19.6 °C 18.6 °C 1013.1 hPa ESE 22.2 km/h 22.2 km/h 94% 4.57 mm WeatherDisplay:10.37 W/m2 -RA
06:32 19.6 °C 18.6 °C 1013.1 hPa ESE 22.2 km/h 22.2 km/h 94% 4.06 mm WeatherDisplay:10.37 W/m2 -RA
06:37 19.6 °C 18.6 °C 1012.8 hPa ESE 22.2 km/h 22.2 km/h 94% 4.32 mm WeatherDisplay:10.37 W/m2 -RA
06:42 19.6 °C 18.6 °C 1013.1 hPa ESE 22.2 km/h 22.2 km/h 94% 4.06 mm WeatherDisplay:10.37 W/m2 -RA
06:47 19.6 °C 18.6 °C 1013.1 hPa ESE 22.2 km/h 22.2 km/h 94% 3.3 mm WeatherDisplay:10.37 W/m2 -RA
06:52 19.6 °C 18.6 °C 1013.1 hPa ESE 22.2 km/h 22.2 km/h 94% 3.3 mm WeatherDisplay:10.37 W/m2 -RA
06:57 19.6 °C 18.6 °C 1013.1 hPa ESE 22.2 km/h 22.2 km/h 94% 2.79 mm WeatherDisplay:10.37 W/m2 -RA
07:02 19.6 °C 18.6 °C 1013.1 hPa ESE 22.2 km/h 22.2 km/h 94% 2.54 mm WeatherDisplay:10.37 W/m2 -RA
07:07 19.6 °C 18.6 °C 1012.8 hPa ESE 14.8 km/h 14.8 km/h 94% 2.29 mm WeatherDisplay:10.37 W/m2 -RA
07:12 19.6 °C 18.6 °C 1013.1 hPa ESE 14.8 km/h 14.8 km/h 94% 2.03 mm WeatherDisplay:10.37 W/m2 -RA
07:17 19.6 °C 18.6 °C 1013.1 hPa ESE 14.8 km/h 14.8 km/h 94% 1.78 mm WeatherDisplay:10.37 W/m2 -RA
07:22 19.6 °C 18.6 °C 1013.1 hPa ESE 14.8 km/h 14.8 km/h 94% 1.52 mm WeatherDisplay:10.37 W/m2 -RA
07:27 19.6 °C 18.6 °C 1012.8 hPa ESE 14.8 km/h 14.8 km/h 94% 1.52 mm WeatherDisplay:10.37 W/m2 -RA
07:32 19.6 °C 18.6 °C 1012.8 hPa ESE 14.8 km/h 14.8 km/h 94% 1.52 mm WeatherDisplay:10.37 W/m2 -RA
07:37 19.6 °C 18.6 °C 1012.8 hPa ESE 14.8 km/h 14.8 km/h 94% 1.78 mm WeatherDisplay:10.37 W/m2 -RA
07:42 19.6 °C 18.6 °C 1012.8 hPa ESE 14.8 km/h 14.8 km/h 94% 2.54 mm WeatherDisplay:10.37 W/m2 -RA
07:47 19.6 °C 18.6 °C 1012.8 hPa ESE 14.8 km/h 14.8 km/h 94% 3.81 mm WeatherDisplay:10.37 W/m2 -RA
07:52 19.6 °C 18.6 °C 1012.4 hPa ESE 14.8 km/h 14.8 km/h 94% 4.06 mm WeatherDisplay:10.37 W/m2 -RA
07:57 19.6 °C 18.6 °C 1012.4 hPa ESE 14.8 km/h 14.8 km/h 94% 4.32 mm WeatherDisplay:10.37 W/m2 -RA
08:03 19.6 °C 18.6 °C 1012.4 hPa SSE 14.8 km/h 14.8 km/h 94% 4.83 mm WeatherDisplay:10.37 W/m2 -RA
08:08 19.6 °C 18.6 °C 1012.4 hPa SSE 13 km/h 13 km/h 94% 5.84 mm WeatherDisplay:10.37 W/m2 -RA
08:13 19.6 °C 18.6 °C 1012.4 hPa SE 18.5 km/h 18.5 km/h 94% 7.11 mm WeatherDisplay:10.37 W/m2 RA
08:18 19.6 °C 18.6 °C 1012.1 hPa SE 18.5 km/h 18.5 km/h 94% 7.87 mm WeatherDisplay:10.37 W/m2 RA
08:23 19.6 °C 18.6 °C 1012.1 hPa SE 18.5 km/h 18.5 km/h 94% 8.64 mm WeatherDisplay:10.37 W/m2 RA
08:28 19.6 °C 18.6 °C 1012.1 hPa SE 18.5 km/h 18.5 km/h 94% 9.4 mm WeatherDisplay:10.37 W/m2 RA
08:33 19.7 °C 18.7 °C 1011.7 hPa SE 18.5 km/h 18.5 km/h 94% 9.4 mm WeatherDisplay:10.37 W/m2 OVC
08:38 19.6 °C 18.6 °C 1011.7 hPa SE 18.5 km/h 18.5 km/h 94% 8.89 mm WeatherDisplay:10.37 W/m2 RA
08:43 19.6 °C 18.6 °C 1011.7 hPa SE 31.5 km/h 31.5 km/h 94% 8.89 mm WeatherDisplay:10.37 W/m2 -RA
08:48 19.6 °C 18.6 °C 1011.7 hPa SE 31.5 km/h 31.5 km/h 94% 7.87 mm WeatherDisplay:10.37 W/m2 -RA
08:53 19.7 °C 18.7 °C 1011.7 hPa SSE 14.8 km/h 14.8 km/h 94% 7.37 mm WeatherDisplay:10.37 W/m2 -RA
08:58 19.7 °C 18.7 °C 1011.7 hPa SSE 14.8 km/h 14.8 km/h 94% 8.64 mm WeatherDisplay:10.37 W/m2 -RA
09:03 19.6 °C 18.6 °C 1011.7 hPa SSE 16.7 km/h 16.7 km/h 94% 9.14 mm WeatherDisplay:10.37 W/m2 RA
09:08 19.6 °C 18.6 °C 1011.4 hPa SSE 16.7 km/h 16.7 km/h 94% 8.64 mm WeatherDisplay:10.37 W/m2 RA
09:13 19.5 °C 18.5 °C 1011.4 hPa SSE 16.7 km/h 16.7 km/h 94% 8.13 mm WeatherDisplay:10.37 W/m2 RA
09:18 19.5 °C 18.5 °C 1011.4 hPa SSE 16.7 km/h 16.7 km/h 94% 7.37 mm WeatherDisplay:10.37 W/m2 OVC
09:24 19.5 °C 18.5 °C 1011.1 hPa SSE 16.7 km/h 16.7 km/h 94% 6.35 mm WeatherDisplay:10.37 W/m2 -RA
09:29 19.5 °C 18.5 °C 1011.1 hPa SSE 16.7 km/h 16.7 km/h 94% 5.59 mm WeatherDisplay:10.37 W/m2 -RA
09:34 19.5 °C 18.5 °C 1011.1 hPa SSE 16.7 km/h 16.7 km/h 94% 5.33 mm WeatherDisplay:10.37 W/m2 -RA
09:39 19.5 °C 18.5 °C 1010.7 hPa SSE 16.7 km/h 16.7 km/h 94% 5.08 mm WeatherDisplay:10.37 W/m2 -RA
09:44 19.5 °C 18.5 °C 1011.1 hPa SSE 16.7 km/h 16.7 km/h 94% 4.57 mm WeatherDisplay:10.37 W/m2 -RA
09:49 19.5 °C 18.5 °C 1010.7 hPa SSE 16.7 km/h 16.7 km/h 94% 4.32 mm WeatherDisplay:10.37 W/m2 -RA
09:54 19.5 °C 18.5 °C 1010.7 hPa SSE 18.5 km/h 18.5 km/h 94% 3.56 mm WeatherDisplay:10.37 W/m2 OVC
09:59 19.6 °C 18.6 °C 1010.7 hPa SSE 18.5 km/h 18.5 km/h 94% 2.29 mm WeatherDisplay:10.37 W/m2 OVC
10:09 19.6 °C 18.6 °C 1010.7 hPa SSE 16.7 km/h 16.7 km/h 94% 0.76 mm WeatherDisplay:10.37 W/m2 OVC
10:20 19.6 °C 18.6 °C 1012.1 hPa SSE 16.7 km/h 16.7 km/h 94% 0.51 mm WeatherDisplay:10.37 W/m2 RA
10:25 18.7 °C 17.3 °C 1012.1 hPa SSE 12.9 km/h 16.1 km/h 92% 2.54 mm WeatherDisplay:10.37 W/m2 -RA
10:30 17.7 °C 16.2 °C 1011.4 hPa SSE 13 km/h 13 km/h 91% 5.33 mm WeatherDisplay:10.37 W/m2 -RA
10:35 17.2 °C 15.9 °C 1011.7 hPa WSW 24.1 km/h 40.2 km/h 92% 0.76 mm WeatherDisplay:10.37 W/m2 RA
10:40 17 °C 15.8 °C 1012.1 hPa West 40.7 km/h 40.7 km/h 93% 10.67 mm WeatherDisplay:10.37 W/m2 RA
10:45 16.8 °C 15.7 °C 1012.4 hPa West 42.6 km/h 42.6 km/h 93% 18.03 mm WeatherDisplay:10.37 W/m2 +RA
10:50 16.7 °C 15.6 °C 1012.4 hPa West 42.6 km/h 42.6 km/h 93% 22.61 mm WeatherDisplay:10.37 W/m2 +RA
10:55 16.6 °C 15.5 °C 1012.1 hPa West 22.2 km/h 22.2 km/h 93% 25.91 mm WeatherDisplay:10.37 W/m2 +RA
11:00 16.5 °C 15.4 °C 1011.7 hPa West 22.2 km/h 22.2 km/h 93% 27.43 mm WeatherDisplay:10.37 W/m2 +RA
11:05 16.5 °C 15.6 °C 1011.4 hPa WNW 37 km/h 37 km/h 94% 28.7 mm WeatherDisplay:10.37 W/m2 +RA
11:10 16.4 °C 15.4 °C 1011.7 hPa WNW 37 km/h 37 km/h 94% 29.72 mm WeatherDisplay:10.37 W/m2 +RA
11:20 16.3 °C 15.4 °C 1011.4 hPa WNW 16.7 km/h 16.7 km/h 94% 30.23 mm WeatherDisplay:10.37 W/m2 OVC
11:25 16.4 °C 15.5 °C 1011.7 hPa West 16.7 km/h 16.7 km/h 94% 28.19 mm WeatherDisplay:10.37 W/m2 -RA
11:30 16.5 °C 15.6 °C 1011.7 hPa West 16.7 km/h 16.7 km/h 94% 25.4 mm WeatherDisplay:10.37 W/m2 -RA
11:35 16.6 °C 15.6 °C 1011.7 hPa West 16.7 km/h 16.7 km/h 94% 22.35 mm WeatherDisplay:10.37 W/m2 -RA
11:40 16.6 °C 15.7 °C 1011.7 hPa West 16.7 km/h 16.7 km/h 94% 19.05 mm WeatherDisplay:10.37 W/m2 -RA
11:45 16.8 °C 15.8 °C 1012.1 hPa WNW 14.8 km/h 14.8 km/h 94% 12.95 mm WeatherDisplay:10.37 W/m2 OVC
11:50 16.9 °C 15.9 °C 1012.1 hPa WNW 14.8 km/h 14.8 km/h 94% 8.64 mm WeatherDisplay:10.37 W/m2 OVC
11:55 17.1 °C 16.1 °C 1012.1 hPa WNW 14.8 km/h 14.8 km/h 94% 4.57 mm WeatherDisplay:10.37 W/m2 OVC
12:00 17.3 °C 16.3 °C 1012.1 hPa WNW 14.8 km/h 14.8 km/h 94% 3.56 mm WeatherDisplay:10.37 W/m2 OVC
12:05 17.5 °C 16.5 °C 1012.4 hPa West 18.5 km/h 18.5 km/h 94% 2.03 mm WeatherDisplay:10.37 W/m2 BKN
12:10 17.8 °C 16.8 °C 1012.4 hPa West 18.5 km/h 18.5 km/h 94% 1.27 mm WeatherDisplay:10.37 W/m2 BKN
12:16 17.8 °C 16.8 °C 1012.4 hPa West 18.5 km/h 18.5 km/h 94% 1.02 mm WeatherDisplay:10.37 W/m2 BKN
12:21 17.7 °C 16.7 °C 1012.1 hPa West 18.5 km/h 18.5 km/h 94% 0.51 mm WeatherDisplay:10.37 W/m2 BKN
12:26 17.9 °C 16.9 °C 1012.4 hPa West 18.5 km/h 18.5 km/h 94% 0 mm WeatherDisplay:10.37 W/m2 BKN
12:31 17.6 °C 16.4 °C 1012.1 hPa West 18.5 km/h 18.5 km/h 93% 0 mm WeatherDisplay:10.37 W/m2 BKN
12:36 17.8 °C 16.6 °C 1012.4 hPa West 18.5 km/h 18.5 km/h 93% 0 mm WeatherDisplay:10.37 W/m2 BKN
12:41 17.8 °C 16.7 °C 1012.4 hPa West 18.5 km/h 18.5 km/h 93% 0 mm WeatherDisplay:10.37 W/m2 BKN
12:46 17.7 °C 16.2 °C 1012.4 hPa West 18.5 km/h 18.5 km/h 91% 0 mm WeatherDisplay:10.37 W/m2 BKN
12:51 17.6 °C 16.1 °C 1012.1 hPa West 18.5 km/h 18.5 km/h 91% 0 mm WeatherDisplay:10.37 W/m2 BKN
12:56 17.7 °C 16.2 °C 1011.7 hPa West 18.5 km/h 18.5 km/h 91% 0 mm WeatherDisplay:10.37 W/m2 BKN
13:01 18.1 °C 16.7 °C 1011.7 hPa West 18.5 km/h 18.5 km/h 92% 0 mm WeatherDisplay:10.37 W/m2 BKN
13:06 18.3 °C 16.6 °C 1011.4 hPa West 18.5 km/h 18.5 km/h 90% 0 mm WeatherDisplay:10.37 W/m2 BKN
13:11 18.3 °C 16.3 °C 1011.7 hPa West 20.4 km/h 20.4 km/h 88% 0 mm WeatherDisplay:10.37 W/m2 BKN
13:16 18.3 °C 16.1 °C 1011.7 hPa West 20.4 km/h 20.4 km/h 87% 0 mm WeatherDisplay:10.37 W/m2 BKN
13:21 18.3 °C 16.1 °C 1011.7 hPa West 20.4 km/h 20.4 km/h 87% 0 mm WeatherDisplay:10.37 W/m2 BKN
13:26 18.6 °C 16.3 °C 1011.7 hPa West 20.4 km/h 20.4 km/h 87% 0 mm WeatherDisplay:10.37 W/m2 BKN
13:31 18.8 °C 16.6 °C 1011.7 hPa West 20.4 km/h 20.4 km/h 87% 0 mm WeatherDisplay:10.37 W/m2 FEW
13:36 19 °C 16.6 °C 1011.4 hPa West 14.8 km/h 14.8 km/h 86% 0 mm WeatherDisplay:10.37 W/m2 FEW
13:41 18.9 °C 15.4 °C 1011.1 hPa West 14.8 km/h 14.8 km/h 80% 0 mm WeatherDisplay:10.37 W/m2 FEW
13:47 19.1 °C 15.9 °C 1011.1 hPa West 14.8 km/h 14.8 km/h 82% 0 mm WeatherDisplay:10.37 W/m2 FEW
13:52 19.4 °C 15.9 °C 1011.1 hPa West 14.8 km/h 14.8 km/h 80% 0 mm WeatherDisplay:10.37 W/m2 FEW
13:57 19.3 °C 15.6 °C 1011.1 hPa West 14.8 km/h 14.8 km/h 79% 0 mm WeatherDisplay:10.37 W/m2 FEW
14:02 19.3 °C 15.6 °C 1011.1 hPa SW 20.4 km/h 20.4 km/h 79% 0 mm WeatherDisplay:10.37 W/m2 BKN
14:05 19.4 °C 15.4 °C 1011.1 hPa WSW 20.9 km/h 20.9 km/h 78% 0 mm WeatherDisplay:10.37 W/m2 BKN
14:10 19.3 °C 15 °C 1010.7 hPa SW 20.9 km/h 20.9 km/h 76% 0 mm WeatherDisplay:10.37 W/m2 BKN
14:15 19.4 °C 15.2 °C 1010.7 hPa SW 20.9 km/h 20.9 km/h 77% 0 mm WeatherDisplay:10.37 W/m2 BKN
14:20 19.4 °C 15.1 °C 1010.7 hPa SW 20.9 km/h 20.9 km/h 76% 0 mm WeatherDisplay:10.37 W/m2 BKN
14:25 19.7 °C 14.3 °C 1010.7 hPa SW 20.4 km/h 20.4 km/h 71% 0 mm WeatherDisplay:10.37 W/m2 BKN
14:30 19.7 °C 14.1 °C 1010.7 hPa SW 20.9 km/h 20.9 km/h 70% 0 mm WeatherDisplay:10.37 W/m2 BKN
14:35 19.5 °C 14.1 °C 1010.7 hPa SW 20.4 km/h 20.4 km/h 71% 0 mm WeatherDisplay:10.37 W/m2 BKN
14:40 19.5 °C 14.7 °C 1010.7 hPa SW 20.4 km/h 20.4 km/h 74% 0 mm WeatherDisplay:10.37 W/m2 BKN
14:45 19.9 °C 14.5 °C 1010.7 hPa SW 20.4 km/h 20.4 km/h 71% 0 mm WeatherDisplay:10.37 W/m2 BKN
14:50 20.3 °C 14.9 °C 1010.7 hPa SW 20.4 km/h 20.4 km/h 71% 0 mm WeatherDisplay:10.37 W/m2 BKN
14:52 20.4 °C 14.3 °C 1010.4 hPa SW 20.4 km/h 20.4 km/h 68% 0 mm WeatherDisplay:10.37 W/m2 BKN
14:57 20.6 °C 14.1 °C 1010.7 hPa SW 20.4 km/h 20.4 km/h 66% 0 mm WeatherDisplay:10.37 W/m2 BKN
15:02 20.5 °C 13.9 °C 1010.7 hPa WSW 22.2 km/h 22.2 km/h 66% 0 mm WeatherDisplay:10.37 W/m2 BKN
15:07 20.5 °C 14.6 °C 1010.7 hPa WSW 22.2 km/h 22.2 km/h 69% 0 mm WeatherDisplay:10.37 W/m2 BKN
15:12 20.6 °C 14.7 °C 1010.7 hPa WSW 22.2 km/h 22.2 km/h 69% 0 mm WeatherDisplay:10.37 W/m2 BKN
15:17 20.7 °C 15 °C 1010.7 hPa WSW 22.2 km/h 22.2 km/h 70% 0 mm WeatherDisplay:10.37 W/m2 BKN
15:22 20.6 °C 14.3 °C 1010.7 hPa WSW 22.2 km/h 22.2 km/h 67% 0 mm WeatherDisplay:10.37 W/m2 BKN
15:27 20.4 °C 13.8 °C 1010.7 hPa WSW 22.2 km/h 22.2 km/h 66% 0 mm WeatherDisplay:10.37 W/m2 BKN
15:32 20.2 °C 13.7 °C 1010.7 hPa WSW 22.2 km/h 22.2 km/h 66% 0 mm WeatherDisplay:10.37 W/m2 BKN
15:37 20.2 °C 13.7 °C 1010.7 hPa WSW 22.2 km/h 22.2 km/h 66% 0 mm WeatherDisplay:10.37 W/m2 BKN
15:42 20.2 °C 13.8 °C 1010.7 hPa WSW 22.2 km/h 22.2 km/h 67% 0 mm WeatherDisplay:10.37 W/m2 BKN
15:47 20.1 °C 13.1 °C 1010.7 hPa WSW 22.2 km/h 22.2 km/h 64% 0 mm WeatherDisplay:10.37 W/m2 BKN
15:52 19.9 °C 13.2 °C 1010.7 hPa WSW 22.2 km/h 22.2 km/h 65% 0 mm WeatherDisplay:10.37 W/m2 BKN
15:57 19.8 °C 13.2 °C 1011.1 hPa WSW 22.2 km/h 22.2 km/h 66% 0 mm WeatherDisplay:10.37 W/m2 BKN
16:02 19.7 °C 13.2 °C 1011.1 hPa West 42.6 km/h 42.6 km/h 66% 0 mm WeatherDisplay:10.37 W/m2 SCT
16:07 19.8 °C 12.8 °C 1011.1 hPa West 42.6 km/h 42.6 km/h 64% 0 mm WeatherDisplay:10.37 W/m2 SCT
16:12 19.8 °C 13.1 °C 1011.1 hPa West 42.6 km/h 42.6 km/h 65% 0 mm WeatherDisplay:10.37 W/m2 SCT
16:18 19.8 °C 12.6 °C 1011.1 hPa West 42.6 km/h 42.6 km/h 63% 0 mm WeatherDisplay:10.37 W/m2 SCT
16:23 19.7 °C 12.2 °C 1011.1 hPa West 42.6 km/h 42.6 km/h 62% 0 mm WeatherDisplay:10.37 W/m2 SCT
16:28 19.8 °C 11.8 °C 1011.1 hPa West 42.6 km/h 42.6 km/h 60% 0 mm WeatherDisplay:10.37 W/m2 SCT
16:33 19.7 °C 12 °C 1011.1 hPa West 42.6 km/h 42.6 km/h 61% 0 mm WeatherDisplay:10.37 W/m2 SCT
16:38 19.7 °C 12.2 °C 1011.1 hPa West 42.6 km/h 42.6 km/h 62% 0 mm WeatherDisplay:10.37 W/m2 SCT
16:43 19.6 °C 12.1 °C 1011.1 hPa West 42.6 km/h 42.6 km/h 62% 0 mm WeatherDisplay:10.37 W/m2 SCT
16:48 19.5 °C 12 °C 1011.1 hPa West 42.6 km/h 42.6 km/h 62% 0 mm WeatherDisplay:10.37 W/m2 SCT
16:53 19.5 °C 12.3 °C 1011.1 hPa West 42.6 km/h 42.6 km/h 63% 0 mm WeatherDisplay:10.37 W/m2 SCT
16:58 19.5 °C 12.3 °C 1011.1 hPa West 42.6 km/h 42.6 km/h 63% 0 mm WeatherDisplay:10.37 W/m2 SCT
17:03 19.5 °C 12.5 °C 1011.4 hPa West 27.8 km/h 27.8 km/h 64% 0 mm WeatherDisplay:10.37 W/m2 FEW
17:08 19.4 °C 12.7 °C 1011.4 hPa West 27.8 km/h 27.8 km/h 65% 0 mm WeatherDisplay:10.37 W/m2 FEW
17:13 19.3 °C 12.6 °C 1011.4 hPa West 27.8 km/h 27.8 km/h 65% 0 mm WeatherDisplay:10.37 W/m2 FEW
17:18 19.1 °C 12.3 °C 1011.4 hPa West 27.8 km/h 27.8 km/h 65% 0 mm WeatherDisplay:10.37 W/m2 FEW
17:23 18.9 °C 13.1 °C 1011.4 hPa West 27.8 km/h 27.8 km/h 69% 0 mm WeatherDisplay:10.37 W/m2 FEW
17:28 18.7 °C 12.9 °C 1011.4 hPa West 27.8 km/h 27.8 km/h 69% 0 mm WeatherDisplay:10.37 W/m2 FEW
17:33 18.6 °C 13 °C 1011.4 hPa West 27.8 km/h 27.8 km/h 70% 0 mm WeatherDisplay:10.37 W/m2 FEW
17:38 18.4 °C 12.2 °C 1011.4 hPa West 27.8 km/h 27.8 km/h 67% 0 mm WeatherDisplay:10.37 W/m2 FEW
17:43 18.3 °C 12.5 °C 1011.4 hPa West 27.8 km/h 27.8 km/h 69% 0 mm WeatherDisplay:10.37 W/m2 FEW
17:48 18.2 °C 12.4 °C 1011.4 hPa West 27.8 km/h 27.8 km/h 69% 0 mm WeatherDisplay:10.37 W/m2 FEW
17:54 18.1 °C 12.3 °C 1011.4 hPa West 27.8 km/h 27.8 km/h 69% 0 mm WeatherDisplay:10.37 W/m2 FEW
17:59 17.9 °C 12.4 °C 1011.4 hPa West 27.8 km/h 27.8 km/h 70% 0 mm WeatherDisplay:10.37 W/m2 FEW
18:04 17.8 °C 12.3 °C 1011.4 hPa West 20.4 km/h 20.4 km/h 70% 0 mm WeatherDisplay:10.37 W/m2 FEW
18:09 17.8 °C 12 °C 1011.4 hPa West 20.4 km/h 20.4 km/h 69% 0 mm WeatherDisplay:10.37 W/m2 FEW
18:14 17.8 °C 11.8 °C 1011.7 hPa West 20.4 km/h 20.4 km/h 68% 0 mm WeatherDisplay:10.37 W/m2 FEW
18:19 17.7 °C 11.9 °C 1011.7 hPa West 20.4 km/h 20.4 km/h 69% 0 mm WeatherDisplay:10.37 W/m2 FEW
18:24 17.6 °C 11.8 °C 1011.7 hPa West 20.4 km/h 20.4 km/h 69% 0 mm WeatherDisplay:10.37 W/m2 FEW
18:29 17.5 °C 11.9 °C 1011.7 hPa West 20.4 km/h 20.4 km/h 70% 0 mm WeatherDisplay:10.37 W/m2 FEW
18:34 17.4 °C 11.8 °C 1011.7 hPa West 20.4 km/h 20.4 km/h 70% 0 mm WeatherDisplay:10.37 W/m2 FEW
18:39 17.2 °C 11.7 °C 1012.1 hPa West 20.4 km/h 20.4 km/h 70% 0 mm WeatherDisplay:10.37 W/m2 FEW
18:44 17.1 °C 11.8 °C 1012.1 hPa West 20.4 km/h 20.4 km/h 71% 0 mm WeatherDisplay:10.37 W/m2 FEW
18:49 16.9 °C 12 °C 1012.1 hPa West 20.4 km/h 20.4 km/h 73% 0 mm WeatherDisplay:10.37 W/m2 FEW
18:54 16.7 °C 12 °C 1012.1 hPa West 20.4 km/h 20.4 km/h 74% 0 mm WeatherDisplay:10.37 W/m2 FEW
18:59 16.4 °C 12 °C 1012.1 hPa West 20.4 km/h 20.4 km/h 75% 0 mm WeatherDisplay:10.37 W/m2 FEW
19:04 16.3 °C 11.7 °C 1012.1 hPa West 14.8 km/h 14.8 km/h 74% 0 mm WeatherDisplay:10.37 W/m2 FEW
19:09 16.2 °C 11.9 °C 1012.1 hPa West 14.8 km/h 14.8 km/h 76% 0 mm WeatherDisplay:10.37 W/m2 FEW
19:14 15.9 °C 11.7 °C 1012.1 hPa West 14.8 km/h 14.8 km/h 76% 0 mm WeatherDisplay:10.37 W/m2 FEW
19:19 15.7 °C 11.5 °C 1012.4 hPa West 14.8 km/h 14.8 km/h 76% 0 mm WeatherDisplay:10.37 W/m2 FEW
19:24 15.6 °C 11.7 °C 1012.4 hPa West 14.8 km/h 14.8 km/h 78% 0 mm WeatherDisplay:10.37 W/m2 FEW
19:29 15.4 °C 11.6 °C 1012.4 hPa West 14.8 km/h 14.8 km/h 78% 0 mm WeatherDisplay:10.37 W/m2 FEW
19:34 15.2 °C 11.8 °C 1012.4 hPa West 14.8 km/h 14.8 km/h 80% 0 mm WeatherDisplay:10.37 W/m2 FEW
19:39 15.1 °C 11.7 °C 1012.4 hPa West 14.8 km/h 14.8 km/h 80% 0 mm WeatherDisplay:10.37 W/m2 FEW
19:45 15.1 °C 11.7 °C 1012.8 hPa West 14.5 km/h 14.5 km/h 80% 0 mm WeatherDisplay:10.37 W/m2 FEW
19:50 15.2 °C 11.3 °C 1012.8 hPa West 14.5 km/h 14.5 km/h 78% 0 mm WeatherDisplay:10.37 W/m2 FEW
19:55 15.2 °C 11.6 °C 1012.8 hPa West 14.5 km/h 14.5 km/h 79% 0 mm WeatherDisplay:10.37 W/m2 FEW
19:57 15.2 °C 11.4 °C 1012.8 hPa West 14.8 km/h 14.8 km/h 78% 0 mm WeatherDisplay:10.37 W/m2 FEW
20:02 15.3 °C 11.4 °C 1012.8 hPa West 16.7 km/h 16.7 km/h 78% 0 mm WeatherDisplay:10.37 W/m2 FEW
20:07 15.2 °C 11.3 °C 1012.8 hPa West 16.7 km/h 16.7 km/h 78% 0 mm WeatherDisplay:10.37 W/m2 FEW
20:12 15.1 °C 11.3 °C 1012.8 hPa West 16.7 km/h 16.7 km/h 78% 0 mm WeatherDisplay:10.37 W/m2 FEW
20:17 15.1 °C 11.3 °C 1012.8 hPa West 16.7 km/h 16.7 km/h 78% 0 mm WeatherDisplay:10.37 W/m2 FEW
20:22 15.1 °C 11.1 °C 1013.1 hPa West 16.7 km/h 16.7 km/h 77% 0 mm WeatherDisplay:10.37 W/m2 FEW
20:27 15.1 °C 11.3 °C 1013.1 hPa West 16.7 km/h 16.7 km/h 78% 0 mm WeatherDisplay:10.37 W/m2 FEW
20:32 15.1 °C 11.3 °C 1013.1 hPa West 16.7 km/h 16.7 km/h 78% 0 mm WeatherDisplay:10.37 W/m2 FEW
20:37 15.1 °C 11.3 °C 1013.1 hPa West 16.7 km/h 16.7 km/h 78% 0 mm WeatherDisplay:10.37 W/m2 FEW
20:42 15.1 °C 11.2 °C 1013.1 hPa West 16.7 km/h 16.7 km/h 78% 0 mm WeatherDisplay:10.37 W/m2 FEW
20:47 15 °C 11.4 °C 1013.1 hPa West 16.7 km/h 16.7 km/h 79% 0 mm WeatherDisplay:10.37 W/m2 FEW
20:52 14.9 °C 11.3 °C 1013.4 hPa West 16.7 km/h 16.7 km/h 79% 0 mm WeatherDisplay:10.37 W/m2 FEW
20:57 14.9 °C 11.4 °C 1013.4 hPa West 16.7 km/h 16.7 km/h 80% 0 mm WeatherDisplay:10.37 W/m2 FEW
21:02 14.9 °C 11.4 °C 1013.4 hPa West 18.5 km/h 18.5 km/h 80% 0 mm WeatherDisplay:10.37 W/m2 SCT
21:07 14.9 °C 11.4 °C 1013.4 hPa West 18.5 km/h 18.5 km/h 80% 0 mm WeatherDisplay:10.37 W/m2 SCT
21:12 14.8 °C 11.4 °C 1013.4 hPa West 18.5 km/h 18.5 km/h 80% 0 mm WeatherDisplay:10.37 W/m2 SCT
21:17 14.8 °C 11.3 °C 1013.8 hPa West 18.5 km/h 18.5 km/h 80% 0 mm WeatherDisplay:10.37 W/m2 SCT
21:22 14.7 °C 11.3 °C 1013.8 hPa West 18.5 km/h 18.5 km/h 80% 0 mm WeatherDisplay:10.37 W/m2 SCT
21:27 14.7 °C 11.3 °C 1013.8 hPa West 18.5 km/h 18.5 km/h 80% 0 mm WeatherDisplay:10.37 W/m2 SCT
21:32 14.7 °C 11.3 °C 1013.8 hPa WNW 20.4 km/h 20.4 km/h 80% 0 mm WeatherDisplay:10.37 W/m2 BKN
21:37 14.7 °C 11.4 °C 1013.8 hPa WNW 20.4 km/h 20.4 km/h 81% 0 mm WeatherDisplay:10.37 W/m2 BKN
21:42 14.6 °C 11.4 °C 1013.8 hPa WNW 20.4 km/h 20.4 km/h 81% 0 mm WeatherDisplay:10.37 W/m2 BKN
21:47 14.6 °C 11.3 °C 1013.8 hPa WNW 20.4 km/h 20.4 km/h 81% 0 mm WeatherDisplay:10.37 W/m2 BKN
21:53 14.5 °C 11.3 °C 1014.1 hPa WNW 20.4 km/h 20.4 km/h 81% 0 mm WeatherDisplay:10.37 W/m2 BKN
21:58 14.3 °C 11.3 °C 1014.1 hPa WNW 20.4 km/h 20.4 km/h 82% 0 mm WeatherDisplay:10.37 W/m2 BKN
22:03 14.2 °C 11.2 °C 1014.1 hPa West 20.4 km/h 20.4 km/h 82% 0 mm WeatherDisplay:10.37 W/m2 BKN
22:08 14.2 °C 11.1 °C 1014.1 hPa West 20.4 km/h 20.4 km/h 82% 0 mm WeatherDisplay:10.37 W/m2 BKN
22:13 14.1 °C 11.1 °C 1014.4 hPa West 20.4 km/h 20.4 km/h 82% 0 mm WeatherDisplay:10.37 W/m2 BKN
22:18 14.1 °C 11.1 °C 1014.1 hPa West 20.4 km/h 20.4 km/h 82% 0 mm WeatherDisplay:10.37 W/m2 BKN
22:23 14.1 °C 11.1 °C 1014.4 hPa West 20.4 km/h 20.4 km/h 82% 0 mm WeatherDisplay:10.37 W/m2 BKN
22:28 14 °C 11 °C 1014.4 hPa West 20.4 km/h 20.4 km/h 82% 0 mm WeatherDisplay:10.37 W/m2 BKN
22:33 13.9 °C 10.9 °C 1014.1 hPa West 20.4 km/h 20.4 km/h 82% 0 mm WeatherDisplay:10.37 W/m2 BKN
22:43 13.7 °C 10.9 °C 1014.4 hPa West 20.4 km/h 20.4 km/h 83% 0 mm WeatherDisplay:10.37 W/m2 BKN
22:48 13.7 °C 10.8 °C 1014.4 hPa West 20.4 km/h 20.4 km/h 83% 0 mm WeatherDisplay:10.37 W/m2 BKN
22:53 13.6 °C 10.8 °C 1014.4 hPa West 20.4 km/h 20.4 km/h 83% 0 mm WeatherDisplay:10.37 W/m2 SCT
22:58 13.6 °C 10.9 °C 1014.4 hPa West 20.4 km/h 20.4 km/h 84% 0 mm WeatherDisplay:10.37 W/m2 SCT
23:03 13.5 °C 10.8 °C 1014.4 hPa WNW 18.5 km/h 18.5 km/h 84% 0 mm WeatherDisplay:10.37 W/m2 SCT
23:08 13.4 °C 10.8 °C 1014.4 hPa WNW 18.5 km/h 18.5 km/h 84% 0 mm WeatherDisplay:10.37 W/m2 SCT
23:14 13.4 °C 10.7 °C 1014.4 hPa WNW 18.5 km/h 18.5 km/h 84% 0 mm WeatherDisplay:10.37 W/m2 SCT
23:19 13.4 °C 10.7 °C 1014.8 hPa WNW 18.5 km/h 18.5 km/h 84% 0 mm WeatherDisplay:10.37 W/m2 SCT
23:24 13.3 °C 10.9 °C 1014.8 hPa WNW 16.7 km/h 16.7 km/h 85% 0 mm WeatherDisplay:10.37 W/m2 BKN
23:27 13.3 °C 10.8 °C 1014.8 hPa WNW 16.7 km/h 16.7 km/h 85% 0 mm WeatherDisplay:10.37 W/m2 BKN
23:32 13.2 °C 10.7 °C 1014.8 hPa West 18.5 km/h 18.5 km/h 85% 0 mm WeatherDisplay:10.37 W/m2 SCT
23:37 13.1 °C 10.6 °C 1014.8 hPa West 18.5 km/h 18.5 km/h 85% 0 mm WeatherDisplay:10.37 W/m2 SCT
23:42 12.9 °C 10.6 °C 1014.8 hPa West 18.5 km/h 18.5 km/h 86% 0 mm WeatherDisplay:10.37 W/m2 SCT
23:48 12.8 °C 10.5 °C 1014.8 hPa West 18.5 km/h 18.5 km/h 86% 0 mm WeatherDisplay:10.37 W/m2 SCT
23:53 12.7 °C 10.6 °C 1014.8 hPa West 18.5 km/h 18.5 km/h 87% 0 mm WeatherDisplay:10.37 W/m2 SCT
23:58 12.6 °C 10.4 °C 1014.8 hPa West 18.5 km/h 18.5 km/h 87% 0 mm WeatherDisplay:10.37 W/m2 SCT
Piedmont Bend
Compliments of Weather Underground - 4 mb